Time;durP1;ratioP1;P1;durP2;ratioP2;P2;SDS_P1;SDS_P2;PMS_P1;PMS_P2;Temp;Humidity;BMP_temperature;BMP_pressure;BME280_temperature;BME280_humidity;BME280_pressure;Samples;Min_cycle;Max_cycle;Signal;HPM_P1;HPM_P2
2021/07/01 00:00:53;;;;;;;24.30;18.60;;;;;;;;;;2054566;28;20302;-58
2021/07/01 00:01:56;;;;;;;20.23;17.15;;;;;;;;;;2056136;28;20212;-52
2021/07/01 00:02:57;;;;;;;25.02;19.55;;;;;;;;;;2056340;28;20224;-54
2021/07/01 00:03:57;;;;;;;20.98;17.60;;;;;;;;;;2055679;28;20609;-56
2021/07/01 00:04:57;;;;;;;21.23;16.73;;;;;;;;;;2054668;28;20696;-55
2021/07/01 00:05:58;;;;;;;22.25;17.83;;;;;;;;;;2056235;28;20174;-55
2021/07/01 00:06:58;;;;;;;26.00;18.00;;;;;;;;;;2053456;28;20205;-58
2021/07/01 00:07:58;;;;;;;22.48;16.50;;;;;;;;;;2055309;28;20211;-56
2021/07/01 00:08:58;;;;;;;22.98;17.27;;;;;;;;;;2056589;28;20178;-55
2021/07/01 00:09:59;;;;;;;20.30;15.65;;;;;;;;;;2057034;28;20178;-54
2021/07/01 00:10:59;;;;;;;25.08;16.63;;;;;;;;;;2056262;28;20341;-62
2021/07/01 00:12:00;;;;;;;30.20;17.40;;;;;;;;;;2055614;28;20240;-60
2021/07/01 00:13:00;;;;;;;27.30;16.42;;;;;;;;;;2056248;28;20174;-53
2021/07/01 00:14:01;;;;;;;19.58;16.25;;;;;;;;;;2057183;28;20217;-57
2021/07/01 00:15:01;;;;;;;24.58;16.70;;;;;;;;;;2056762;28;20183;-54
2021/07/01 00:16:01;;;;;;;21.60;15.65;;;;;;;;;;2057083;28;20229;-58
2021/07/01 00:17:02;;;;;;;25.27;16.33;;;;;;;;;;2057045;28;20539;-56
2021/07/01 00:18:03;;;;;;;21.23;15.45;;;;;;;;;;2057166;28;20261;-56
2021/07/01 00:19:04;;;;;;;22.67;16.35;;;;;;;;;;2054244;28;20167;-60
2021/07/01 00:20:05;;;;;;;22.30;16.23;;;;;;;;;;2049233;28;20254;-51
2021/07/01 00:21:05;;;;;;;21.25;16.52;;;;;;;;;;2051436;28;20194;-56
2021/07/01 00:22:06;;;;;;;19.85;15.27;;;;;;;;;;2057179;28;20626;-55
2021/07/01 00:23:06;;;;;;;22.13;15.90;;;;;;;;;;2055264;28;20217;-57
2021/07/01 00:24:07;;;;;;;23.33;16.63;;;;;;;;;;2050890;28;20628;-53
2021/07/01 00:25:08;;;;;;;21.70;14.95;;;;;;;;;;2054825;28;20622;-56
2021/07/01 00:26:09;;;;;;;24.50;16.75;;;;;;;;;;2058062;28;20190;-60
2021/07/01 00:27:09;;;;;;;24.38;17.10;;;;;;;;;;2054889;28;20690;-55
2021/07/01 00:28:10;;;;;;;22.20;15.48;;;;;;;;;;2050627;28;20174;-55
2021/07/01 00:29:10;;;;;;;25.88;16.58;;;;;;;;;;2053993;28;20182;-56
2021/07/01 00:30:11;;;;;;;24.25;16.67;;;;;;;;;;2058642;28;20173;-58
2021/07/01 00:31:11;;;;;;;22.77;16.85;;;;;;;;;;2054367;28;20627;-52
2021/07/01 00:32:12;;;;;;;21.05;15.35;;;;;;;;;;2050767;28;20194;-56
2021/07/01 00:33:12;;;;;;;26.02;16.85;;;;;;;;;;2054198;28;20672;-55
2021/07/01 00:34:12;;;;;;;23.58;16.08;;;;;;;;;;2058494;28;20630;-54
2021/07/01 00:35:13;;;;;;;25.05;15.60;;;;;;;;;;2058505;28;20171;-54
2021/07/01 00:36:13;;;;;;;23.08;15.63;;;;;;;;;;2058588;28;20182;-57
2021/07/01 00:37:13;;;;;;;18.95;15.30;;;;;;;;;;2057662;28;20166;-56
2021/07/01 00:38:14;;;;;;;20.35;15.20;;;;;;;;;;2057769;28;20169;-59
2021/07/01 00:39:14;;;;;;;23.17;15.95;;;;;;;;;;2058013;28;20186;-54
2021/07/01 00:40:14;;;;;;;23.15;16.17;;;;;;;;;;2057942;28;20163;-54
2021/07/01 00:41:15;;;;;;;19.15;15.02;;;;;;;;;;2061296;28;20186;-58
2021/07/01 00:42:15;;;;;;;24.95;17.60;;;;;;;;;;2057905;28;20738;-59
2021/07/01 00:43:16;;;;;;;18.52;15.70;;;;;;;;;;2054943;28;20198;-53
2021/07/01 00:44:16;;;;;;;24.45;17.35;;;;;;;;;;2065790;28;20197;-56
2021/07/01 00:45:17;;;;;;;22.45;16.75;;;;;;;;;;2060402;28;20162;-52
2021/07/01 00:46:18;;;;;;;21.67;16.92;;;;;;;;;;2050553;28;20175;-57
2021/07/01 00:47:18;;;;;;;22.67;16.58;;;;;;;;;;2054719;28;20282;-55
2021/07/01 00:48:19;;;;;;;26.70;16.48;;;;;;;;;;2057906;28;20875;-54
2021/07/01 00:49:19;;;;;;;23.33;16.30;;;;;;;;;;2058487;28;20181;-56
2021/07/01 00:50:19;;;;;;;30.83;16.75;;;;;;;;;;2057603;28;20162;-54
2021/07/01 00:51:20;;;;;;;19.70;16.05;;;;;;;;;;2057422;28;20241;-58
2021/07/01 00:52:20;;;;;;;23.00;15.38;;;;;;;;;;2065995;28;20185;-54
2021/07/01 00:53:21;;;;;;;25.08;16.42;;;;;;;;;;2055629;28;20650;-57
2021/07/01 00:54:22;;;;;;;24.98;17.83;;;;;;;;;;2049923;29;20690;-53
2021/07/01 00:55:22;;;;;;;26.83;16.92;;;;;;;;;;2049512;28;20190;-58
2021/07/01 00:56:24;;;;;;;22.65;17.20;;;;;;;;;;2049353;28;20254;-58
2021/07/01 00:57:24;;;;;;;26.15;17.92;;;;;;;;;;2057704;28;20254;-58
2021/07/01 00:58:24;;;;;;;20.63;16.00;;;;;;;;;;2051720;28;20202;-56
2021/07/01 00:59:25;;;;;;;23.58;16.70;;;;;;;;;;2052653;28;20177;-54
2021/07/01 01:00:37;;;;;;;25.83;18.50;;;;;;;;;;2054119;28;20178;-56
2021/07/01 01:01:39;;;;;;;21.08;16.08;;;;;;;;;;2056761;28;20194;-57
2021/07/01 01:02:40;;;;;;;24.33;17.20;;;;;;;;;;2057809;28;20223;-56
2021/07/01 01:03:42;;;;;;;23.35;16.90;;;;;;;;;;2052699;28;20200;-58
2021/07/01 01:04:42;;;;;;;25.63;17.17;;;;;;;;;;2057071;28;20200;-62
2021/07/01 01:05:43;;;;;;;27.42;17.50;;;;;;;;;;2057993;28;20178;-60
2021/07/01 01:06:44;;;;;;;24.48;16.17;;;;;;;;;;2054845;28;20198;-60
2021/07/01 01:07:44;;;;;;;25.55;16.23;;;;;;;;;;2057856;28;20170;-63
2021/07/01 01:08:44;;;;;;;22.83;17.08;;;;;;;;;;2056697;28;20284;-58
2021/07/01 01:09:45;;;;;;;30.52;17.83;;;;;;;;;;2049319;28;20219;-59
2021/07/01 01:10:46;;;;;;;22.67;15.63;;;;;;;;;;2040949;28;20231;-57
2021/07/01 01:12:07;;;;;;;26.02;17.38;;;;;;;;;;2049879;28;20313;-55
2021/07/01 01:13:07;;;;;;;23.80;15.65;;;;;;;;;;2053796;28;20183;-59
2021/07/01 01:14:27;;;;;;;24.52;15.88;;;;;;;;;;2057235;28;20165;-56
2021/07/01 01:15:41;;;;;;;26.38;16.45;;;;;;;;;;2055452;28;20193;-57
2021/07/01 01:16:42;;;;;;;22.98;16.10;;;;;;;;;;2057440;28;21025;-52
2021/07/01 01:17:46;;;;;;;22.45;15.63;;;;;;;;;;2056686;28;20194;-56
2021/07/01 01:18:49;;;;;;;22.70;16.10;;;;;;;;;;2042797;28;20258;-58
2021/07/01 01:19:49;;;;;;;23.02;15.95;;;;;;;;;;2056742;28;20182;-56
2021/07/01 01:20:50;;;;;;;27.08;16.30;;;;;;;;;;2056327;28;20328;-59
2021/07/01 01:21:51;;;;;;;25.10;16.67;;;;;;;;;;2057233;28;20175;-53
2021/07/01 01:22:51;;;;;;;23.02;15.45;;;;;;;;;;2057531;28;20261;-55
2021/07/01 01:23:55;;;;;;;30.73;16.40;;;;;;;;;;2057423;28;20178;-59
2021/07/01 01:24:55;;;;;;;25.42;16.60;;;;;;;;;;2065501;28;20272;-50
2021/07/01 01:26:00;;;;;;;22.63;16.20;;;;;;;;;;2057429;28;20736;-57
2021/07/01 01:27:09;;;;;;;22.95;15.77;;;;;;;;;;2054700;28;20185;-52
2021/07/01 01:28:09;;;;;;;20.70;16.48;;;;;;;;;;2057386;28;20190;-51
2021/07/01 01:29:10;;;;;;;20.73;15.57;;;;;;;;;;2049864;29;20175;-55
2021/07/01 01:30:10;;;;;;;21.05;15.20;;;;;;;;;;2048804;29;20295;-62
2021/07/01 01:31:19;;;;;;;25.83;16.08;;;;;;;;;;2057229;28;20277;-60
2021/07/01 01:32:19;;;;;;;19.65;15.30;;;;;;;;;;2057523;28;20682;-54
2021/07/01 01:33:20;;;;;;;28.77;16.30;;;;;;;;;;2058218;28;20196;-56
2021/07/01 01:34:21;;;;;;;22.63;16.10;;;;;;;;;;2064804;28;20181;-55
2021/07/01 01:35:21;;;;;;;25.00;15.85;;;;;;;;;;2065947;28;20162;-56
2021/07/01 01:36:21;;;;;;;23.05;16.45;;;;;;;;;;2057286;28;20544;-56
2021/07/01 01:37:24;;;;;;;22.67;16.88;;;;;;;;;;2057728;28;20200;-57
2021/07/01 01:38:24;;;;;;;20.13;15.73;;;;;;;;;;2057879;28;20233;-53
2021/07/01 01:39:25;;;;;;;23.83;15.43;;;;;;;;;;2057660;28;20166;-57
2021/07/01 01:40:36;;;;;;;23.38;16.13;;;;;;;;;;2057960;28;20193;-56
2021/07/01 01:41:36;;;;;;;26.27;15.65;;;;;;;;;;2057261;28;20210;-55
2021/07/01 01:42:36;;;;;;;19.05;15.65;;;;;;;;;;2049701;29;20179;-57
2021/07/01 01:43:37;;;;;;;21.35;15.07;;;;;;;;;;2042530;28;20194;-59
2021/07/01 01:44:37;;;;;;;21.83;14.45;;;;;;;;;;2049742;29;20174;-56
2021/07/01 01:45:38;;;;;;;23.25;15.38;;;;;;;;;;2057139;28;20182;-59
2021/07/01 01:46:39;;;;;;;21.85;16.17;;;;;;;;;;2057801;28;20538;-54
2021/07/01 01:47:48;;;;;;;21.60;15.77;;;;;;;;;;2055939;28;20190;-59
2021/07/01 01:48:52;;;;;;;24.63;16.10;;;;;;;;;;2056576;28;20198;-56
2021/07/01 01:49:53;;;;;;;19.92;15.13;;;;;;;;;;2057436;28;20162;-60
2021/07/01 01:50:54;;;;;;;20.48;14.70;;;;;;;;;;2065015;28;20170;-60
2021/07/01 01:51:54;;;;;;;22.42;16.23;;;;;;;;;;2056564;28;20261;-59
2021/07/01 01:52:55;;;;;;;23.95;15.45;;;;;;;;;;2034820;29;20172;-57
2021/07/01 01:53:55;;;;;;;22.25;15.93;;;;;;;;;;2049529;28;20167;-56
2021/07/01 01:54:56;;;;;;;26.00;16.50;;;;;;;;;;2055644;28;20185;-59
2021/07/01 01:55:56;;;;;;;23.13;16.15;;;;;;;;;;2049462;28;20532;-54
2021/07/01 01:56:57;;;;;;;29.38;16.50;;;;;;;;;;2057381;28;20174;-56
2021/07/01 01:58:15;;;;;;;29.13;16.02;;;;;;;;;;2063348;28;20170;-57
2021/07/01 01:59:45;;;;;;;21.88;15.82;;;;;;;;;;2049244;29;20648;-57
2021/07/01 02:01:24;;;;;;;22.85;16.52;;;;;;;;;;2032614;29;20620;-54
2021/07/01 02:02:29;;;;;;;21.23;15.82;;;;;;;;;;2033301;29;20165;-56
2021/07/01 02:03:50;;;;;;;22.80;15.43;;;;;;;;;;2040631;29;20198;-54
2021/07/01 02:05:12;;;;;;;20.75;15.40;;;;;;;;;;2033039;29;20768;-53
2021/07/01 02:06:13;;;;;;;20.13;16.45;;;;;;;;;;2033309;29;20251;-55
2021/07/01 02:07:14;;;;;;;24.33;16.75;;;;;;;;;;2049758;28;20203;-55
2021/07/01 02:08:40;;;;;;;23.85;16.42;;;;;;;;;;2054411;28;20676;-56
2021/07/01 02:09:40;;;;;;;28.65;17.75;;;;;;;;;;2056708;28;20190;-57
2021/07/01 02:10:41;;;;;;;20.80;15.43;;;;;;;;;;2057540;28;20197;-62
2021/07/01 02:11:41;;;;;;;21.52;15.90;;;;;;;;;;2056154;28;20201;-51
2021/07/01 02:12:42;;;;;;;21.50;14.98;;;;;;;;;;2056997;28;20187;-51
2021/07/01 02:13:43;;;;;;;23.65;14.93;;;;;;;;;;2056461;28;20174;-61
2021/07/01 02:15:03;;;;;;;24.33;17.10;;;;;;;;;;2051279;28;20186;-52
2021/07/01 02:16:13;;;;;;;26.52;16.90;;;;;;;;;;2056530;28;20162;-55
2021/07/01 02:17:14;;;;;;;21.60;16.30;;;;;;;;;;2048128;28;20285;-52
2021/07/01 02:18:14;;;;;;;25.33;17.70;;;;;;;;;;2040470;29;20840;-56
2021/07/01 02:19:14;;;;;;;26.00;16.98;;;;;;;;;;2038272;29;20176;-55
2021/07/01 02:20:17;;;;;;;27.05;16.73;;;;;;;;;;2056678;28;20270;-56
2021/07/01 02:21:19;;;;;;;22.10;16.65;;;;;;;;;;2053454;28;20249;-53
2021/07/01 02:22:19;;;;;;;20.83;15.77;;;;;;;;;;2056735;28;20175;-55
2021/07/01 02:23:20;;;;;;;28.08;17.08;;;;;;;;;;2061817;28;20217;-51
2021/07/01 02:24:21;;;;;;;32.78;17.30;;;;;;;;;;2060516;28;20335;-54
2021/07/01 02:25:21;;;;;;;22.83;17.40;;;;;;;;;;2054299;28;20182;-50
2021/07/01 02:26:41;;;;;;;33.45;17.58;;;;;;;;;;2056920;28;20196;-55
2021/07/01 02:27:42;;;;;;;23.10;17.40;;;;;;;;;;2047596;29;20199;-58
2021/07/01 02:28:43;;;;;;;29.67;17.65;;;;;;;;;;2057087;28;20737;-57
2021/07/01 02:29:56;;;;;;;30.23;18.52;;;;;;;;;;2051815;28;20639;-59
2021/07/01 02:31:07;;;;;;;22.63;17.27;;;;;;;;;;2055384;28;20186;-53
2021/07/01 02:32:11;;;;;;;22.23;16.25;;;;;;;;;;2051710;28;20178;-56
2021/07/01 02:33:13;;;;;;;27.10;18.35;;;;;;;;;;2045365;28;20632;-55
2021/07/01 02:34:15;;;;;;;24.92;17.85;;;;;;;;;;2052630;28;20229;-50
2021/07/01 02:35:44;;;;;;;24.50;17.88;;;;;;;;;;2061460;28;20190;-60
2021/07/01 02:37:03;;;;;;;27.23;18.23;;;;;;;;;;2056945;28;20182;-50
2021/07/01 02:38:29;;;;;;;28.95;17.20;;;;;;;;;;2054139;28;20183;-52
2021/07/01 02:39:40;;;;;;;29.23;18.05;;;;;;;;;;2057022;28;20252;-56
2021/07/01 02:40:41;;;;;;;25.10;18.65;;;;;;;;;;2055132;28;20733;-55
2021/07/01 02:41:44;;;;;;;27.58;17.20;;;;;;;;;;2048020;28;20730;-50
2021/07/01 02:42:44;;;;;;;27.52;17.30;;;;;;;;;;2046090;29;20187;-51
2021/07/01 02:43:44;;;;;;;27.42;18.77;;;;;;;;;;2049060;28;20695;-56
2021/07/01 02:45:03;;;;;;;22.88;17.00;;;;;;;;;;2061488;28;20288;-52
2021/07/01 02:46:16;;;;;;;25.50;16.90;;;;;;;;;;2056683;28;20217;-59
2021/07/01 02:47:16;;;;;;;25.73;17.65;;;;;;;;;;2053904;28;20179;-54
2021/07/01 02:48:17;;;;;;;26.65;17.27;;;;;;;;;;2055407;28;20293;-56
2021/07/01 02:49:22;;;;;;;20.98;16.55;;;;;;;;;;2054295;28;20162;-55
2021/07/01 02:50:29;;;;;;;27.83;17.50;;;;;;;;;;2056387;28;20159;-54
2021/07/01 02:51:29;;;;;;;26.88;16.88;;;;;;;;;;2056004;28;20217;-58
2021/07/01 02:52:30;;;;;;;25.88;17.38;;;;;;;;;;2054488;28;20194;-56
2021/07/01 02:53:30;;;;;;;28.75;16.80;;;;;;;;;;2048482;28;20186;-53
2021/07/01 02:54:31;;;;;;;25.70;15.55;;;;;;;;;;2051071;28;20278;-53
2021/07/01 02:55:31;;;;;;;32.30;17.73;;;;;;;;;;2055214;28;20185;-51
2021/07/01 02:56:40;;;;;;;20.63;16.10;;;;;;;;;;2047481;29;20645;-57
2021/07/01 02:57:40;;;;;;;27.30;15.93;;;;;;;;;;2049286;28;20231;-56
2021/07/01 02:58:45;;;;;;;23.27;16.77;;;;;;;;;;2041839;28;20262;-54
2021/07/01 03:00:05;;;;;;;23.90;16.33;;;;;;;;;;2055437;28;20174;-60
2021/07/01 03:01:18;;;;;;;24.85;16.00;;;;;;;;;;2053565;28;20201;-55
2021/07/01 03:02:19;;;;;;;18.13;15.43;;;;;;;;;;2052235;28;20253;-53
2021/07/01 03:03:32;;;;;;;25.20;16.88;;;;;;;;;;2056322;28;20229;-57
2021/07/01 03:04:38;;;;;;;26.08;16.40;;;;;;;;;;2063562;28;20193;-58
2021/07/01 03:05:38;;;;;;;22.58;16.80;;;;;;;;;;2057255;28;20186;-56
2021/07/01 03:06:38;;;;;;;23.08;16.90;;;;;;;;;;2056118;28;20579;-59
2021/07/01 03:07:39;;;;;;;23.52;16.30;;;;;;;;;;2056248;28;20170;-58
2021/07/01 03:08:40;;;;;;;28.42;16.67;;;;;;;;;;2055792;28;20209;-58
2021/07/01 03:09:41;;;;;;;23.63;16.92;;;;;;;;;;2056131;28;20173;-59
2021/07/01 03:10:41;;;;;;;22.25;16.08;;;;;;;;;;2056508;28;20205;-55
2021/07/01 03:11:42;;;;;;;26.65;16.67;;;;;;;;;;2055837;28;20186;-54
2021/07/01 03:12:42;;;;;;;24.63;16.17;;;;;;;;;;2055431;28;20205;-53
2021/07/01 03:13:42;;;;;;;21.73;16.60;;;;;;;;;;2060823;28;20189;-58
2021/07/01 03:14:47;;;;;;;26.25;15.27;;;;;;;;;;2046798;28;20183;-51
2021/07/01 03:15:47;;;;;;;25.23;15.88;;;;;;;;;;2061696;28;20178;-54
2021/07/01 03:16:48;;;;;;;22.70;15.75;;;;;;;;;;2064395;28;20223;-54
2021/07/01 03:17:49;;;;;;;23.75;15.88;;;;;;;;;;2060340;28;20185;-58
2021/07/01 03:18:50;;;;;;;27.02;15.75;;;;;;;;;;2048691;28;21010;-56
2021/07/01 03:20:09;;;;;;;21.60;16.50;;;;;;;;;;2061532;28;20190;-55
2021/07/01 03:21:45;;;;;;;22.40;15.15;;;;;;;;;;2057109;28;20636;-56
2021/07/01 03:22:46;;;;;;;22.65;16.45;;;;;;;;;;2064196;28;20186;-56
2021/07/01 03:23:47;;;;;;;19.63;15.90;;;;;;;;;;2064385;28;20216;-57
2021/07/01 03:24:48;;;;;;;26.35;15.98;;;;;;;;;;2054838;28;20218;-55
2021/07/01 03:25:48;;;;;;;21.95;16.17;;;;;;;;;;2048220;29;20190;-59
2021/07/01 03:26:48;;;;;;;23.98;16.17;;;;;;;;;;2047736;29;20187;-57
2021/07/01 03:27:49;;;;;;;29.60;17.15;;;;;;;;;;2056201;28;20186;-56
2021/07/01 03:28:50;;;;;;;27.77;16.98;;;;;;;;;;2055698;28;20205;-57
2021/07/01 03:29:55;;;;;;;22.15;15.05;;;;;;;;;;2048059;29;20179;-55
2021/07/01 03:30:56;;;;;;;23.05;15.05;;;;;;;;;;2047335;28;20622;-61
2021/07/01 03:31:56;;;;;;;20.35;14.57;;;;;;;;;;2055368;28;20177;-58
2021/07/01 03:32:56;;;;;;;29.02;15.75;;;;;;;;;;2055712;28;20340;-57
2021/07/01 03:33:57;;;;;;;22.13;16.15;;;;;;;;;;2056125;28;20166;-56
2021/07/01 03:34:57;;;;;;;22.25;15.55;;;;;;;;;;2050284;28;20249;-55
2021/07/01 03:36:17;;;;;;;24.50;15.60;;;;;;;;;;2056219;28;20181;-54
2021/07/01 03:37:36;;;;;;;23.48;15.70;;;;;;;;;;2056471;28;20201;-56
2021/07/01 03:38:56;;;;;;;21.52;15.23;;;;;;;;;;2055119;28;20193;-57
2021/07/01 03:40:17;;;;;;;27.83;15.57;;;;;;;;;;2051436;28;20195;-57
2021/07/01 03:41:20;;;;;;;23.05;15.95;;;;;;;;;;2052924;28;20269;-56
2021/07/01 03:42:21;;;;;;;21.40;14.80;;;;;;;;;;2055248;28;20202;-56
2021/07/01 03:43:22;;;;;;;22.00;14.95;;;;;;;;;;2050686;28;20215;-52
2021/07/01 03:44:26;;;;;;;21.30;14.73;;;;;;;;;;2048167;28;20171;-52
2021/07/01 03:45:27;;;;;;;22.83;14.68;;;;;;;;;;2047886;29;20206;-56
2021/07/01 03:46:27;;;;;;;22.40;16.27;;;;;;;;;;2047442;28;20186;-56
2021/07/01 03:47:28;;;;;;;20.17;14.27;;;;;;;;;;2055932;28;20265;-56
2021/07/01 03:48:28;;;;;;;22.58;14.30;;;;;;;;;;2053610;28;20208;-55
2021/07/01 03:49:47;;;;;;;24.17;14.93;;;;;;;;;;2054066;28;20652;-57
2021/07/01 03:51:20;;;;;;;19.08;13.85;;;;;;;;;;2038204;28;20571;-55
2021/07/01 03:52:33;;;;;;;24.95;15.63;;;;;;;;;;2054257;28;20170;-59
2021/07/01 03:53:35;;;;;;;20.50;14.05;;;;;;;;;;2053964;28;20169;-60
2021/07/01 03:54:36;;;;;;;16.52;13.85;;;;;;;;;;2054421;28;20166;-55
2021/07/01 03:55:41;;;;;;;16.75;14.27;;;;;;;;;;2048053;28;20210;-58
2021/07/01 03:56:41;;;;;;;19.48;14.30;;;;;;;;;;2054999;28;20244;-56
2021/07/01 03:57:48;;;;;;;16.67;13.88;;;;;;;;;;2056606;28;20249;-58
2021/07/01 03:58:48;;;;;;;17.20;13.27;;;;;;;;;;2055279;28;20208;-52
2021/07/01 04:00:15;;;;;;;14.23;12.45;;;;;;;;;;2027736;28;20176;-53
2021/07/01 04:01:24;;;;;;;16.23;12.48;;;;;;;;;;2063827;28;20193;-57
2021/07/01 04:02:25;;;;;;;17.98;14.05;;;;;;;;;;2055295;28;20166;-57
2021/07/01 04:03:27;;;;;;;17.55;12.68;;;;;;;;;;2056402;28;20198;-55
2021/07/01 04:04:47;;;;;;;17.45;12.38;;;;;;;;;;2048273;28;20206;-60
2021/07/01 04:05:48;;;;;;;18.25;12.70;;;;;;;;;;2055732;28;20190;-56
2021/07/01 04:06:49;;;;;;;18.00;10.82;;;;;;;;;;2055505;28;20178;-57
2021/07/01 04:07:49;;;;;;;15.32;13.05;;;;;;;;;;2063914;28;20204;-56
2021/07/01 04:08:52;;;;;;;21.80;13.52;;;;;;;;;;2054233;28;20218;-58
2021/07/01 04:09:53;;;;;;;16.73;13.15;;;;;;;;;;2047713;29;20976;-56
2021/07/01 04:11:13;;;;;;;19.10;13.75;;;;;;;;;;2045836;28;20234;-55
2021/07/01 04:12:13;;;;;;;19.17;13.43;;;;;;;;;;2048000;28;20346;-56
2021/07/01 04:13:34;;;;;;;18.35;14.63;;;;;;;;;;2079898;23;20309;-57
2021/07/01 04:14:53;;;;;;;17.95;14.13;;;;;;;;;;2073340;28;20181;-54
2021/07/01 04:16:22;;;;;;;18.90;13.57;;;;;;;;;;2039127;29;20656;-53
2021/07/01 04:17:41;;;;;;;17.10;13.93;;;;;;;;;;2054313;28;20183;-52
2021/07/01 04:19:00;;;;;;;24.42;16.13;;;;;;;;;;2070761;28;20177;-52
2021/07/01 04:20:19;;;;;;;19.73;15.50;;;;;;;;;;2077131;28;20224;-56
2021/07/01 04:21:37;;;;;;;21.00;15.50;;;;;;;;;;2081378;28;20180;-55
2021/07/01 04:22:56;;;;;;;21.58;15.85;;;;;;;;;;2074403;28;20178;-56
2021/07/01 04:24:35;;;;;;;21.15;16.02;;;;;;;;;;2048273;29;20261;-55
2021/07/01 04:25:41;;;;;;;21.73;15.50;;;;;;;;;;2036444;29;20215;-55
2021/07/01 04:26:42;;;;;;;21.85;16.40;;;;;;;;;;2042205;29;20211;-57
2021/07/01 04:27:52;;;;;;;25.55;17.33;;;;;;;;;;2038648;29;20180;-56
2021/07/01 04:28:52;;;;;;;24.85;17.10;;;;;;;;;;2029100;29;20248;-56
2021/07/01 04:29:54;;;;;;;23.73;17.00;;;;;;;;;;2038523;28;20183;-56
2021/07/01 04:30:59;;;;;;;28.17;17.27;;;;;;;;;;2064424;28;20186;-55
2021/07/01 04:32:22;;;;;;;21.40;15.93;;;;;;;;;;2061933;28;21026;-56
2021/07/01 04:33:26;;;;;;;23.85;16.67;;;;;;;;;;2057510;28;20202;-51
2021/07/01 04:34:26;;;;;;;22.98;15.77;;;;;;;;;;2060246;28;20568;-56
2021/07/01 04:35:27;;;;;;;24.13;16.55;;;;;;;;;;2072716;28;20180;-55
2021/07/01 04:36:27;;;;;;;24.48;16.45;;;;;;;;;;2075805;28;20625;-56
2021/07/01 04:37:34;;;;;;;19.92;16.02;;;;;;;;;;2070845;28;20181;-53
2021/07/01 04:38:57;;;;;;;23.30;16.38;;;;;;;;;;2066617;28;20203;-56
2021/07/01 04:40:00;;;;;;;25.02;17.38;;;;;;;;;;2071055;28;20704;-56
2021/07/01 04:41:11;;;;;;;22.58;16.27;;;;;;;;;;2069181;28;20211;-51
2021/07/01 04:42:11;;;;;;;24.65;16.52;;;;;;;;;;2074228;28;20180;-55
2021/07/01 04:43:12;;;;;;;24.40;16.55;;;;;;;;;;2076192;28;20196;-54
2021/07/01 04:44:12;;;;;;;22.42;16.40;;;;;;;;;;2063181;28;20197;-53
2021/07/01 04:45:13;;;;;;;22.23;17.17;;;;;;;;;;2072447;28;20227;-55
2021/07/01 04:46:15;;;;;;;20.38;14.88;;;;;;;;;;2079331;28;20196;-53
2021/07/01 04:47:17;;;;;;;22.10;15.40;;;;;;;;;;2072661;28;20176;-54
2021/07/01 04:48:26;;;;;;;19.98;15.85;;;;;;;;;;2060692;28;20212;-51
2021/07/01 04:49:27;;;;;;;19.63;15.88;;;;;;;;;;2061571;28;20605;-54
2021/07/01 04:50:50;;;;;;;24.13;16.20;;;;;;;;;;2057527;28;20182;-52
2021/07/01 04:52:40;;;;;;;17.48;13.93;;;;;;;;;;2049977;28;20170;-53
2021/07/01 04:54:16;;;;;;;20.45;13.45;;;;;;;;;;2064516;28;20186;-51
2021/07/01 04:55:35;;;;;;;17.92;14.23;;;;;;;;;;2070806;28;20157;-54
2021/07/01 04:56:44;;;;;;;23.02;16.48;;;;;;;;;;2065341;28;20673;-56
2021/07/01 04:57:48;;;;;;;23.92;15.35;;;;;;;;;;2057557;28;20480;-52
2021/07/01 04:58:49;;;;;;;25.92;17.27;;;;;;;;;;2058893;28;20178;-54
2021/07/01 05:00:08;;;;;;;22.30;16.95;;;;;;;;;;2062808;28;20177;-55
2021/07/01 05:01:35;;;;;;;20.08;15.30;;;;;;;;;;2054948;28;20182;-55
2021/07/01 05:02:55;;;;;;;20.77;15.93;;;;;;;;;;2067342;28;20197;-53
2021/07/01 05:03:59;;;;;;;22.95;16.35;;;;;;;;;;2069355;28;20327;-54
2021/07/01 05:05:00;;;;;;;21.95;16.17;;;;;;;;;;2066415;28;20736;-55
2021/07/01 05:06:04;;;;;;;20.90;16.90;;;;;;;;;;2069509;28;20173;-54
2021/07/01 05:07:06;;;;;;;22.70;16.45;;;;;;;;;;2067036;28;20658;-52
2021/07/01 05:08:07;;;;;;;22.15;17.38;;;;;;;;;;2068113;28;20181;-51
2021/07/01 05:09:09;;;;;;;23.95;15.63;;;;;;;;;;2058743;28;20170;-51
2021/07/01 05:10:13;;;;;;;23.60;14.93;;;;;;;;;;2060977;28;20266;-55
2021/07/01 05:11:35;;;;;;;23.33;16.67;;;;;;;;;;2060431;28;20192;-55
2021/07/01 05:12:35;;;;;;;23.85;16.13;;;;;;;;;;2064077;28;20178;-54
2021/07/01 05:13:36;;;;;;;23.15;16.33;;;;;;;;;;2064549;28;20745;-56
2021/07/01 05:14:36;;;;;;;24.23;16.05;;;;;;;;;;2063064;28;20181;-56
2021/07/01 05:15:36;;;;;;;20.05;15.75;;;;;;;;;;2072544;28;20180;-55
2021/07/01 05:16:40;;;;;;;23.42;15.93;;;;;;;;;;2074360;28;20172;-55
2021/07/01 05:17:40;;;;;;;20.73;15.77;;;;;;;;;;2066559;28;20185;-52
2021/07/01 05:18:40;;;;;;;22.00;14.93;;;;;;;;;;2070586;28;20178;-53
2021/07/01 05:19:51;;;;;;;25.15;15.73;;;;;;;;;;2063578;28;20188;-55
2021/07/01 05:20:55;;;;;;;24.42;15.27;;;;;;;;;;2052444;28;20190;-60
2021/07/01 05:22:14;;;;;;;25.73;16.65;;;;;;;;;;2063194;28;20177;-52
2021/07/01 05:23:23;;;;;;;20.73;15.05;;;;;;;;;;2066366;28;20176;-51
2021/07/01 05:24:42;;;;;;;25.50;16.83;;;;;;;;;;2074354;28;20173;-52
2021/07/01 05:26:14;;;;;;;21.48;14.95;;;;;;;;;;2061673;28;20189;-53
2021/07/01 05:27:33;;;;;;;18.45;14.45;;;;;;;;;;2062069;28;20182;-53
2021/07/01 05:28:52;;;;;;;20.75;15.95;;;;;;;;;;2066085;28;20213;-51
2021/07/01 05:30:11;;;;;;;22.88;15.38;;;;;;;;;;2065899;28;20146;-53
2021/07/01 05:31:30;;;;;;;23.88;14.30;;;;;;;;;;2067149;28;20642;-60
2021/07/01 05:32:50;;;;;;;19.92;14.73;;;;;;;;;;2071493;28;20176;-52
2021/07/01 05:34:00;;;;;;;21.30;14.93;;;;;;;;;;2062264;28;20200;-51
2021/07/01 05:35:01;;;;;;;26.33;16.05;;;;;;;;;;2072189;28;20170;-51
2021/07/01 05:36:08;;;;;;;26.17;14.70;;;;;;;;;;2060732;28;20220;-50
2021/07/01 05:37:08;;;;;;;19.33;13.98;;;;;;;;;;2061518;28;20272;-51
2021/07/01 05:38:13;;;;;;;23.90;14.30;;;;;;;;;;2057215;28;20167;-51
2021/07/01 05:39:13;;;;;;;21.05;15.00;;;;;;;;;;2056760;28;20174;-51
2021/07/01 05:40:18;;;;;;;19.15;14.55;;;;;;;;;;2053635;28;20205;-52
2021/07/01 05:41:18;;;;;;;20.70;13.13;;;;;;;;;;2057136;28;20217;-52
2021/07/01 05:42:19;;;;;;;18.05;12.90;;;;;;;;;;2071816;28;20821;-52
2021/07/01 05:43:19;;;;;;;24.23;14.57;;;;;;;;;;2076158;28;20559;-52
2021/07/01 05:44:20;;;;;;;23.13;15.02;;;;;;;;;;2068119;28;20231;-56
2021/07/01 05:45:25;;;;;;;23.25;13.40;;;;;;;;;;2073130;28;20153;-51
2021/07/01 05:46:26;;;;;;;18.10;13.98;;;;;;;;;;2071723;28;20273;-52
2021/07/01 05:47:26;;;;;;;22.20;13.40;;;;;;;;;;2059767;28;20266;-55
2021/07/01 05:48:27;;;;;;;20.38;14.32;;;;;;;;;;2057770;28;20185;-52
2021/07/01 05:49:27;;;;;;;20.45;13.35;;;;;;;;;;2069573;28;20649;-53
2021/07/01 05:50:27;;;;;;;18.67;15.55;;;;;;;;;;2071724;28;20812;-52
2021/07/01 05:51:30;;;;;;;21.30;14.60;;;;;;;;;;2071589;28;20169;-52
2021/07/01 05:52:32;;;;;;;20.30;14.73;;;;;;;;;;2066906;28;20161;-51
2021/07/01 05:54:55;;;;;;;22.08;14.95;;;;;;;;;;2064234;28;20170;-51
2021/07/01 05:55:55;;;;;;;20.08;15.23;;;;;;;;;;2062464;28;20679;-54
2021/07/01 05:56:56;;;;;;;20.40;13.90;;;;;;;;;;2064344;28;20180;-52
2021/07/01 05:57:56;;;;;;;18.27;14.32;;;;;;;;;;2067619;28;20201;-52
2021/07/01 05:58:56;;;;;;;23.90;14.32;;;;;;;;;;2064738;28;20183;-50
2021/07/01 05:59:57;;;;;;;19.02;13.95;;;;;;;;;;2067187;28;20204;-52
2021/07/01 06:00:57;;;;;;;23.42;13.88;;;;;;;;;;2067498;28;20760;-53
2021/07/01 06:01:57;;;;;;;23.30;14.18;;;;;;;;;;2065582;28;20725;-49
2021/07/01 06:02:58;;;;;;;21.10;15.18;;;;;;;;;;2063614;28;20269;-51
2021/07/01 06:03:58;;;;;;;21.92;13.85;;;;;;;;;;2061881;28;20182;-51
2021/07/01 06:05:17;;;;;;;19.75;14.27;;;;;;;;;;2070576;28;20649;-53
2021/07/01 06:06:37;;;;;;;18.08;13.55;;;;;;;;;;2063984;28;20200;-52
2021/07/01 06:07:56;;;;;;;16.80;13.32;;;;;;;;;;2058699;28;20189;-53
2021/07/01 06:08:57;;;;;;;22.90;13.70;;;;;;;;;;2066178;28;20205;-54
2021/07/01 06:10:00;;;;;;;16.30;12.95;;;;;;;;;;2070033;28;20249;-54
2021/07/01 06:11:02;;;;;;;16.70;12.30;;;;;;;;;;2067117;28;20213;-50
2021/07/01 06:12:03;;;;;;;20.27;13.48;;;;;;;;;;2070521;28;20164;-52
2021/07/01 06:13:05;;;;;;;19.35;12.95;;;;;;;;;;2068018;28;20313;-54
2021/07/01 06:14:06;;;;;;;17.52;12.93;;;;;;;;;;2071794;28;20211;-51
2021/07/01 06:15:06;;;;;;;19.02;12.02;;;;;;;;;;2069439;28;20196;-51
2021/07/01 06:16:10;;;;;;;18.60;11.77;;;;;;;;;;2071545;28;20236;-53
2021/07/01 06:17:11;;;;;;;16.58;12.07;;;;;;;;;;2064823;28;20637;-55
2021/07/01 06:18:12;;;;;;;16.98;11.35;;;;;;;;;;2064252;28;20269;-51
2021/07/01 06:19:14;;;;;;;22.23;11.45;;;;;;;;;;2063115;28;20181;-53
2021/07/01 06:20:14;;;;;;;21.02;12.07;;;;;;;;;;2055534;28;20221;-58
2021/07/01 06:21:15;;;;;;;19.27;11.90;;;;;;;;;;2054479;28;20186;-55